Time;durP1;ratioP1;P1;durP2;ratioP2;P2;SDS_P1;SDS_P2;PMS_P1;PMS_P2;Temp;Humidity;BMP_temperature;BMP_pressure;BME280_temperature;BME280_humidity;BME280_pressure;Samples;Min_cycle;Max_cycle;Signal;HPM_P1;HPM_P2
2023/10/28 00:01:06;;;;;;;0.20;0.20;;;;;;;9.50;100.00;97430.22;4901764;29;20230;-61
2023/10/28 00:03:33;;;;;;;0.20;0.20;;;;;;;9.47;100.00;97430.00;4904703;29;20040;-60
2023/10/28 00:06:01;;;;;;;0.20;0.20;;;;;;;9.41;100.00;97431.09;4901343;29;20051;-60
2023/10/28 00:08:29;;;;;;;0.30;0.30;;;;;;;9.39;100.00;97427.94;4902018;29;20047;-59
2023/10/28 00:10:56;;;;;;;0.20;0.20;;;;;;;9.46;100.00;97428.38;4913372;29;20040;-58
2023/10/28 00:13:24;;;;;;;0.20;0.20;;;;;;;9.35;100.00;97426.88;4910886;29;20040;-60
2023/10/28 00:15:51;;;;;;;0.25;0.25;;;;;;;9.36;100.00;97423.94;4904088;29;20048;-61
2023/10/28 00:18:18;;;;;;;0.20;0.20;;;;;;;9.28;100.00;97419.97;4899916;29;20078;-61
2023/10/28 00:20:45;;;;;;;0.30;0.30;;;;;;;9.30;100.00;97427.72;4899557;29;20060;-61
2023/10/28 00:23:13;;;;;;;0.22;0.22;;;;;;;9.36;100.00;97421.25;4898755;29;20133;-60
2023/10/28 00:25:42;;;;;;;0.30;0.30;;;;;;;9.28;100.00;97422.66;4911545;29;20040;-60
2023/10/28 00:28:09;;;;;;;0.30;0.30;;;;;;;9.26;100.00;97424.81;4903155;29;20050;-60
2023/10/28 00:30:38;;;;;;;0.10;0.10;;;;;;;9.19;100.00;97418.97;4900034;29;20046;-61
2023/10/28 00:33:05;;;;;;;0.30;0.30;;;;;;;9.19;100.00;97421.63;4906978;29;20045;-60
2023/10/28 00:35:32;;;;;;;0.20;0.20;;;;;;;9.19;100.00;97418.19;4913205;29;20561;-61
2023/10/28 00:38:00;;;;;;;0.20;0.20;;;;;;;9.17;100.00;97420.31;4900636;29;20052;-60
2023/10/28 00:40:27;;;;;;;0.30;0.30;;;;;;;9.21;100.00;97422.16;4900802;29;20575;-60
2023/10/28 00:42:56;;;;;;;0.20;0.20;;;;;;;9.18;100.00;97420.03;4899422;29;20144;-60
2023/10/28 00:45:23;;;;;;;0.30;0.30;;;;;;;9.14;100.00;97412.88;4904191;29;21380;-61
2023/10/28 00:47:49;;;;;;;0.30;0.30;;;;;;;9.13;100.00;97420.06;4907462;29;20044;-60
2023/10/28 00:50:17;;;;;;;0.20;0.20;;;;;;;9.17;100.00;97421.13;4908688;29;20132;-60
2023/10/28 00:52:45;;;;;;;0.20;0.20;;;;;;;9.11;100.00;97424.09;4895958;29;20123;-60
2023/10/28 00:55:12;;;;;;;0.30;0.30;;;;;;;9.14;100.00;97429.69;4902947;29;20095;-60
2023/10/28 00:57:40;;;;;;;0.20;0.20;;;;;;;9.18;100.00;97428.03;4898487;29;20049;-61
2023/10/28 01:00:11;;;;;;;0.17;0.17;;;;;;;9.19;100.00;97429.66;4911213;29;20528;-60
2023/10/28 01:02:40;;;;;;;0.20;0.20;;;;;;;9.25;100.00;97425.88;4901518;29;20048;-60
2023/10/28 01:05:11;;;;;;;0.20;0.20;;;;;;;9.16;100.00;97432.91;4900557;29;20048;-60
2023/10/28 01:07:38;;;;;;;0.20;0.20;;;;;;;9.19;100.00;97421.63;4904805;29;20144;-60
2023/10/28 01:10:06;;;;;;;0.20;0.20;;;;;;;9.19;100.00;97416.28;4904813;29;20574;-61
2023/10/28 01:12:33;;;;;;;0.20;0.20;;;;;;;9.22;100.00;97422.97;4902735;29;20051;-60
2023/10/28 01:15:01;;;;;;;0.25;0.25;;;;;;;9.22;100.00;97431.78;4900715;29;20083;-60
2023/10/28 01:17:31;;;;;;;0.20;0.20;;;;;;;9.27;100.00;97436.28;4904045;29;20072;-60
2023/10/28 01:19:58;;;;;;;0.30;0.30;;;;;;;9.35;100.00;97429.56;4904866;29;20053;-60
2023/10/28 01:22:26;;;;;;;0.20;0.20;;;;;;;9.33;100.00;97426.34;4893544;29;20130;-60
2023/10/28 01:24:53;;;;;;;0.30;0.30;;;;;;;9.34;100.00;97426.09;4900125;29;20073;-60
2023/10/28 01:27:20;;;;;;;0.20;0.20;;;;;;;9.42;100.00;97427.38;4907607;29;20056;-60
2023/10/28 01:29:47;;;;;;;0.20;0.20;;;;;;;9.38;100.00;97426.31;4902409;29;20049;-60
2023/10/28 01:32:15;;;;;;;0.20;0.20;;;;;;;9.38;100.00;97429.00;4903874;29;20073;-59
2023/10/28 01:34:48;;;;;;;0.20;0.20;;;;;;;9.38;100.00;97429.78;4906763;29;20043;-60
2023/10/28 01:37:16;;;;;;;0.20;0.20;;;;;;;9.43;100.00;97431.63;4913828;29;20056;-59
2023/10/28 01:39:46;;;;;;;0.20;0.20;;;;;;;9.48;100.00;97431.59;4910944;29;20044;-60
2023/10/28 01:42:14;;;;;;;0.20;0.20;;;;;;;9.43;100.00;97434.31;4906049;29;20053;-59
2023/10/28 01:44:42;;;;;;;0.20;0.20;;;;;;;9.44;100.00;97435.91;4918895;29;20082;-59
2023/10/28 01:47:09;;;;;;;0.30;0.30;;;;;;;9.48;100.00;97447.63;4897516;29;20079;-59
2023/10/28 01:49:36;;;;;;;0.20;0.20;;;;;;;9.50;100.00;97445.47;4909823;29;20473;-60
2023/10/28 01:52:04;;;;;;;0.20;0.20;;;;;;;9.42;100.00;97451.44;4912322;29;20100;-60
2023/10/28 01:54:33;;;;;;;0.10;0.10;;;;;;;9.45;100.00;97448.19;4900753;29;20090;-60
2023/10/28 01:57:05;;;;;;;0.20;0.20;;;;;;;9.41;100.00;97447.16;4910150;29;20051;-60
2023/10/28 01:59:32;;;;;;;0.30;0.30;;;;;;;9.44;100.00;97447.41;4896087;29;20048;-60
2023/10/28 02:02:03;;;;;;;0.20;0.20;;;;;;;9.45;100.00;97450.88;4902902;29;20052;-59
2023/10/28 02:04:30;;;;;;;0.20;0.20;;;;;;;9.45;100.00;97453.53;4907869;29;20044;-60
2023/10/28 02:06:58;;;;;;;0.20;0.20;;;;;;;9.37;100.00;97464.84;4902312;29;20076;-60
2023/10/28 02:09:26;;;;;;;0.22;0.22;;;;;;;9.34;100.00;97460.06;4917330;29;20991;-60
2023/10/28 02:11:53;;;;;;;0.20;0.20;;;;;;;9.31;100.00;97464.06;4913981;29;20051;-60
2023/10/28 02:14:22;;;;;;;0.20;0.20;;;;;;;9.37;100.00;97462.16;4898480;29;20131;-59
2023/10/28 02:16:50;;;;;;;0.20;0.20;;;;;;;9.28;100.00;97468.09;4898561;29;20049;-60
2023/10/28 02:19:17;;;;;;;0.20;0.20;;;;;;;9.29;100.00;97476.91;4902817;29;20047;-60
2023/10/28 02:21:45;;;;;;;0.30;0.30;;;;;;;9.32;100.00;97470.22;4915813;29;20167;-60
2023/10/28 02:24:12;;;;;;;0.20;0.20;;;;;;;9.32;100.00;97475.56;4901883;29;20160;-59
2023/10/28 02:26:39;;;;;;;0.20;0.20;;;;;;;9.25;100.00;97476.66;4911007;29;20076;-59
2023/10/28 02:29:06;;;;;;;0.30;0.30;;;;;;;9.17;100.00;97473.78;4903943;29;20049;-60
2023/10/28 02:31:35;;;;;;;0.20;0.20;;;;;;;9.06;100.00;97479.19;4896618;29;20048;-59
2023/10/28 02:34:02;;;;;;;0.30;0.30;;;;;;;9.01;100.00;97473.03;4902238;29;20064;-60
2023/10/28 02:36:29;;;;;;;0.20;0.20;;;;;;;8.92;100.00;97472.03;4905745;29;20450;-59
2023/10/28 02:38:56;;;;;;;0.30;0.30;;;;;;;8.83;100.00;97475.25;4910623;29;20138;-60
2023/10/28 02:41:23;;;;;;;0.30;0.30;;;;;;;8.73;100.00;97477.97;4908663;29;20049;-60
2023/10/28 02:43:51;;;;;;;0.30;0.30;;;;;;;8.70;100.00;97488.41;4904010;29;20067;-60
2023/10/28 02:46:22;;;;;;;0.30;0.30;;;;;;;8.63;100.00;97497.50;4901557;29;20127;-59
2023/10/28 02:48:51;;;;;;;0.30;0.30;;;;;;;8.64;100.00;97493.78;4910955;29;20060;-59
2023/10/28 02:51:18;;;;;;;0.20;0.20;;;;;;;8.58;100.00;97494.03;4901621;29;20495;-59
2023/10/28 02:53:45;;;;;;;0.20;0.20;;;;;;;8.64;100.00;97493.78;4900309;29;20040;-59
2023/10/28 02:56:12;;;;;;;0.30;0.30;;;;;;;8.67;100.00;97488.97;4891260;29;20064;-59
2023/10/28 02:58:40;;;;;;;0.20;0.20;;;;;;;8.76;100.00;97481.97;4913354;29;20032;-60
2023/10/28 03:01:08;;;;;;;0.30;0.30;;;;;;;8.74;100.00;97484.94;4905140;29;20037;-60
2023/10/28 03:03:35;;;;;;;0.30;0.30;;;;;;;8.68;100.00;97491.34;4904052;29;20044;-60
2023/10/28 03:06:04;;;;;;;0.20;0.20;;;;;;;8.71;100.00;97482.81;4899920;29;20614;-60
2023/10/28 03:08:31;;;;;;;0.20;0.20;;;;;;;8.68;100.00;97494.00;4903363;29;20509;-60
2023/10/28 03:10:58;;;;;;;0.15;0.15;;;;;;;8.69;100.00;97506.31;4907709;29;20052;-59
2023/10/28 03:13:25;;;;;;;0.20;0.20;;;;;;;8.73;100.00;97502.00;4893334;29;20136;-59
2023/10/28 03:15:51;;;;;;;0.30;0.30;;;;;;;8.77;100.00;97500.41;4917730;29;20056;-60
2023/10/28 03:18:18;;;;;;;0.20;0.20;;;;;;;8.73;100.00;97491.31;4909023;29;20127;-60
2023/10/28 03:20:45;;;;;;;0.20;0.20;;;;;;;8.68;100.00;97491.34;4898932;29;20566;-60
2023/10/28 03:23:14;;;;;;;0.22;0.22;;;;;;;8.61;100.00;97496.16;4907425;29;20516;-59
2023/10/28 03:25:41;;;;;;;0.22;0.22;;;;;;;8.54;100.00;97493.00;4903664;29;20533;-59
2023/10/28 03:28:08;;;;;;;0.30;0.30;;;;;;;8.47;100.00;97498.63;4907430;29;20048;-60
2023/10/28 03:30:35;;;;;;;0.20;0.20;;;;;;;8.53;100.00;97492.19;4904986;29;20068;-60
2023/10/28 03:33:02;;;;;;;0.30;0.30;;;;;;;8.48;100.00;97492.19;4908295;29;20139;-60
2023/10/28 03:35:29;;;;;;;0.30;0.30;;;;;;;8.45;100.00;97492.75;4903078;29;20847;-59
2023/10/28 03:37:56;;;;;;;0.20;0.20;;;;;;;8.32;100.00;97504.75;4905679;29;20069;-60
2023/10/28 03:40:25;;;;;;;0.28;0.28;;;;;;;8.30;100.00;97504.22;4911470;29;20144;-60
2023/10/28 03:42:52;;;;;;;0.30;0.30;;;;;;;8.26;100.00;97505.81;4896888;29;20560;-59
2023/10/28 03:45:20;;;;;;;0.20;0.20;;;;;;;8.29;100.00;97509.84;4906676;29;20096;-60
2023/10/28 03:47:47;;;;;;;0.25;0.25;;;;;;;8.19;100.00;97506.13;4898723;29;20032;-59
2023/10/28 03:50:14;;;;;;;0.20;0.20;;;;;;;8.25;100.00;97503.44;4903457;29;20124;-60
2023/10/28 03:52:41;;;;;;;0.30;0.30;;;;;;;8.27;100.00;97510.09;4905669;29;20443;-60
2023/10/28 03:55:09;;;;;;;0.20;0.20;;;;;;;8.25;100.00;97511.44;4907936;29;20136;-60
2023/10/28 03:57:37;;;;;;;0.20;0.20;;;;;;;8.23;100.00;97514.38;4900176;29;20048;-59
2023/10/28 04:00:06;;;;;;;0.22;0.22;;;;;;;8.23;100.00;97514.38;4908349;29;20139;-60
2023/10/28 04:02:39;;;;;;;0.20;0.20;;;;;;;8.28;100.00;97516.25;4901545;29;20048;-60
2023/10/28 04:05:06;;;;;;;0.20;0.20;;;;;;;8.27;100.00;97509.31;4905007;29;20549;-60
2023/10/28 04:07:33;;;;;;;0.20;0.20;;;;;;;8.28;100.00;97511.69;4905591;29;20107;-59
2023/10/28 04:10:03;;;;;;;0.20;0.20;;;;;;;8.30;100.00;97506.09;4903233;29;20062;-60
2023/10/28 04:12:32;;;;;;;0.20;0.20;;;;;;;8.34;100.00;97509.84;4906553;29;20103;-59
2023/10/28 04:15:00;;;;;;;0.20;0.20;;;;;;;8.30;100.00;97503.44;4911303;29;20048;-59
2023/10/28 04:17:30;;;;;;;0.20;0.20;;;;;;;8.29;100.00;97510.66;4909614;29;20048;-60
2023/10/28 04:19:59;;;;;;;0.30;0.30;;;;;;;8.29;100.00;97507.97;4911212;29;20426;-60
2023/10/28 04:22:28;;;;;;;0.30;0.30;;;;;;;8.29;100.00;97502.63;4880686;29;20055;-60
2023/10/28 04:24:56;;;;;;;0.32;0.32;;;;;;;8.33;100.00;97503.69;4883140;29;20049;-60
2023/10/28 04:27:23;;;;;;;0.35;0.35;;;;;;;8.31;100.00;97505.84;4886619;29;20140;-59
2023/10/28 04:29:50;;;;;;;0.28;0.28;;;;;;;8.34;100.00;97499.16;4887601;29;20112;-60
2023/10/28 04:32:22;;;;;;;0.38;0.38;;;;;;;8.35;100.00;97496.22;4878588;29;20049;-59
2023/10/28 04:34:50;;;;;;;0.25;0.25;;;;;;;8.38;100.00;97495.66;4882307;29;20056;-60
2023/10/28 04:37:17;;;;;;;0.30;0.30;;;;;;;8.31;100.00;97505.03;4890831;29;20423;-60
2023/10/28 04:39:44;;;;;;;0.30;0.30;;;;;;;8.34;100.00;97488.47;4879835;29;20076;-60
2023/10/28 04:42:11;;;;;;;0.30;0.30;;;;;;;8.28;100.00;97498.34;4890096;29;20052;-60
2023/10/28 04:44:38;;;;;;;0.20;0.20;;;;;;;8.35;100.00;97492.75;4885776;29;20047;-60
2023/10/28 04:47:05;;;;;;;0.20;0.20;;;;;;;8.34;100.00;97493.81;4886140;29;20045;-61
2023/10/28 04:49:34;;;;;;;0.20;0.20;;;;;;;8.34;100.00;97491.94;4887949;29;20447;-60
2023/10/28 04:52:01;;;;;;;0.25;0.25;;;;;;;8.32;100.00;97491.41;4882692;29;20061;-60
2023/10/28 04:54:28;;;;;;;0.20;0.20;;;;;;;8.40;100.00;97485.53;4878594;29;20044;-60
2023/10/28 04:56:55;;;;;;;0.20;0.20;;;;;;;8.26;100.00;97497.81;4888082;29;20092;-60
2023/10/28 04:59:22;;;;;;;0.28;0.28;;;;;;;8.27;100.00;97488.75;4884779;29;20120;-60
2023/10/28 05:01:50;;;;;;;0.30;0.30;;;;;;;8.23;100.00;97482.34;4882507;29;20522;-60
2023/10/28 05:04:18;;;;;;;0.20;0.20;;;;;;;8.24;100.00;97483.97;4881173;29;20041;-60
2023/10/28 05:06:46;;;;;;;0.20;0.20;;;;;;;8.24;100.00;97483.97;4886169;29;20108;-60
2023/10/28 05:09:15;;;;;;;0.20;0.20;;;;;;;8.21;100.00;97485.31;4879283;29;20496;-60
2023/10/28 05:11:42;;;;;;;0.30;0.30;;;;;;;8.30;100.00;97477.53;4890977;29;20048;-61
2023/10/28 05:14:11;;;;;;;0.30;0.30;;;;;;;8.30;100.00;97474.88;4879107;29;20064;-60
2023/10/28 05:16:38;;;;;;;0.30;0.30;;;;;;;8.32;100.00;97470.06;4881276;29;20057;-60
2023/10/28 05:19:05;;;;;;;0.30;0.30;;;;;;;8.37;100.00;97475.38;4883451;29;20084;-60
2023/10/28 05:21:35;;;;;;;0.30;0.30;;;;;;;8.37;100.00;97485.28;4902686;29;20054;-60
2023/10/28 05:24:04;;;;;;;0.20;0.20;;;;;;;8.37;100.00;97483.41;4907159;29;20115;-60
2023/10/28 05:26:31;;;;;;;0.20;0.20;;;;;;;8.46;100.00;97474.84;4904565;29;20070;-60
2023/10/28 05:28:58;;;;;;;0.20;0.20;;;;;;;8.43;100.00;97471.66;4901109;29;20515;-60
2023/10/28 05:31:26;;;;;;;0.20;0.20;;;;;;;8.39;100.00;97481.28;4895748;29;20067;-60
2023/10/28 05:33:53;;;;;;;0.20;0.20;;;;;;;8.41;100.00;97487.16;4904525;29;20048;-59
2023/10/28 05:36:20;;;;;;;0.20;0.20;;;;;;;8.47;100.00;97482.59;4899676;29;20084;-64
2023/10/28 05:38:47;;;;;;;0.20;0.20;;;;;;;8.55;100.00;97478.56;4903980;29;20442;-60
2023/10/28 05:41:15;;;;;;;0.20;0.20;;;;;;;8.61;100.00;97472.97;4894928;29;20108;-60
2023/10/28 05:43:42;;;;;;;0.30;0.30;;;;;;;8.62;100.00;97482.56;4913897;29;20040;-59
2023/10/28 05:46:09;;;;;;;0.20;0.20;;;;;;;8.64;100.00;97479.63;4909666;29;20592;-59
2023/10/28 05:48:36;;;;;;;0.30;0.30;;;;;;;8.66;100.00;97490.81;4900883;29;20087;-59
2023/10/28 05:51:05;;;;;;;0.30;0.30;;;;;;;8.75;100.00;97481.16;4900270;29;20085;-60
2023/10/28 05:53:32;;;;;;;0.20;0.20;;;;;;;8.67;100.00;97483.63;4902172;29;20048;-60
2023/10/28 05:55:59;;;;;;;0.28;0.28;;;;;;;8.76;100.00;97487.31;4898238;29;20051;-60
2023/10/28 05:58:27;;;;;;;0.30;0.30;;;;;;;8.83;100.00;97490.50;4898557;29;20055;-61
2023/10/28 06:00:55;;;;;;;0.30;0.30;;;;;;;9.00;100.00;97484.81;4904467;29;20044;-61
2023/10/28 06:03:22;;;;;;;0.20;0.20;;;;;;;8.93;100.00;97489.66;4900398;29;20044;-59
2023/10/28 06:05:49;;;;;;;0.20;0.20;;;;;;;8.90;100.00;97491.00;4902632;29;20131;-59
2023/10/28 06:08:16;;;;;;;0.20;0.20;;;;;;;8.97;100.00;97480.81;4903801;29;20062;-60
2023/10/28 06:10:45;;;;;;;0.38;0.38;;;;;;;8.96;100.00;97495.25;4914022;29;20144;-59
2023/10/28 06:13:12;;;;;;;0.25;0.25;;;;;;;8.95;100.00;97498.19;4907804;29;20112;-60
2023/10/28 06:15:41;;;;;;;0.20;0.20;;;;;;;8.84;100.00;97492.91;4901138;29;20040;-59
2023/10/28 06:18:08;;;;;;;0.30;0.30;;;;;;;8.88;100.00;97497.69;4907412;29;20412;-60
2023/10/28 06:20:35;;;;;;;0.20;0.20;;;;;;;8.96;100.00;97494.44;4907404;29;20062;-60
2023/10/28 06:23:04;;;;;;;0.20;0.20;;;;;;;8.99;100.00;97504.59;4909732;29;20054;-60
2023/10/28 06:25:31;;;;;;;0.30;0.30;;;;;;;8.97;100.00;97504.06;4907166;29;20049;-60
2023/10/28 06:27:58;;;;;;;0.28;0.28;;;;;;;8.98;100.00;97513.69;4902531;29;20048;-60
2023/10/28 06:30:25;;;;;;;0.22;0.22;;;;;;;9.03;100.00;97510.97;4901477;29;20057;-60
2023/10/28 06:32:53;;;;;;;0.20;0.20;;;;;;;8.99;100.00;97521.44;4903790;29;20561;-60
2023/10/28 06:35:20;;;;;;;0.30;0.30;;;;;;;9.13;100.00;97518.16;4915798;29;20459;-60
2023/10/28 06:37:47;;;;;;;0.20;0.20;;;;;;;9.16;100.00;97518.44;4904328;29;20263;-60
2023/10/28 06:40:14;;;;;;;0.30;0.30;;;;;;;9.23;100.00;97526.91;4898386;29;20084;-60
2023/10/28 06:42:41;;;;;;;0.20;0.20;;;;;;;9.37;100.00;97520.97;4907912;29;20104;-60
2023/10/28 06:45:10;;;;;;;0.20;0.20;;;;;;;9.41;100.00;97524.69;4908800;29;20076;-60
2023/10/28 06:47:37;;;;;;;0.30;0.30;;;;;;;9.54;100.00;97528.66;4906340;29;20040;-59
2023/10/28 06:50:07;;;;;;;0.20;0.20;;;;;;;9.62;100.00;97528.84;4906915;29;20075;-59
2023/10/28 06:52:36;;;;;;;0.20;0.20;;;;;;;9.63;100.00;97530.44;4899342;29;20076;-60
2023/10/28 06:55:03;;;;;;;0.20;0.20;;;;;;;9.66;100.00;97534.44;4903325;29;20036;-60
2023/10/28 06:57:31;;;;;;;0.30;0.30;;;;;;;9.68;100.00;97525.09;4910880;29;20044;-60
2023/10/28 06:59:58;;;;;;;0.20;0.20;;;;;;;9.57;100.00;97536.91;4906328;29;20059;-60
2023/10/28 07:02:25;;;;;;;0.20;0.20;;;;;;;9.69;100.00;97545.41;4906727;29;20070;-60
2023/10/28 07:04:54;;;;;;;0.22;0.22;;;;;;;9.58;100.00;97554.53;4909590;29;20268;-59
2023/10/28 07:07:23;;;;;;;0.20;0.20;;;;;;;9.71;100.00;97547.81;4905139;29;20045;-60
2023/10/28 07:09:50;;;;;;;0.20;0.20;;;;;;;9.70;100.00;97549.66;4907677;29;20387;-59
2023/10/28 07:12:18;;;;;;;0.20;0.20;;;;;;;9.55;100.00;97544.41;4903271;29;20084;-59
2023/10/28 07:14:44;;;;;;;0.20;0.20;;;;;;;9.66;100.00;97550.47;4913728;29;20094;-59
2023/10/28 07:17:11;;;;;;;0.20;0.20;;;;;;;9.78;100.00;97553.63;4910184;29;20048;-59
2023/10/28 07:19:39;;;;;;;0.30;0.30;;;;;;;9.84;100.00;97546.38;4903458;29;20523;-59
2023/10/28 07:22:06;;;;;;;0.20;0.20;;;;;;;9.66;100.00;97551.31;4905769;29;20147;-61
2023/10/28 07:24:34;;;;;;;0.20;0.20;;;;;;;9.77;100.00;97551.22;4910704;29;20056;-61
2023/10/28 07:27:04;;;;;;;0.20;0.20;;;;;;;9.76;100.00;97553.13;4906278;29;20048;-60
2023/10/28 07:29:31;;;;;;;0.20;0.20;;;;;;;9.80;100.00;97559.50;4908082;29;20485;-61
2023/10/28 07:31:59;;;;;;;0.20;0.20;;;;;;;9.85;100.00;97562.13;4910421;29;20083;-61
2023/10/28 07:34:26;;;;;;;0.20;0.20;;;;;;;9.96;100.00;97557.53;4913718;29;20056;-61
2023/10/28 07:36:53;;;;;;;0.30;0.30;;;;;;;10.06;100.00;97565.47;4912756;29;20123;-61
2023/10/28 07:39:20;;;;;;;0.22;0.22;;;;;;;9.91;100.00;97569.06;4907720;29;20028;-61
2023/10/28 07:41:49;;;;;;;0.20;0.20;;;;;;;9.96;100.00;97562.88;4902117;29;20053;-60
2023/10/28 07:44:16;;;;;;;0.20;0.20;;;;;;;9.94;100.00;97573.06;4912709;29;20075;-61
2023/10/28 07:46:43;;;;;;;0.25;0.25;;;;;;;9.97;100.00;97567.16;4905389;29;20116;-60
2023/10/28 07:49:10;;;;;;;0.17;0.17;;;;;;;10.08;100.00;97573.22;4902557;29;20072;-61
2023/10/28 07:51:37;;;;;;;0.10;0.10;;;;;;;10.13;100.00;97576.69;4905858;29;20435;-60
2023/10/28 07:54:05;;;;;;;0.10;0.10;;;;;;;10.09;100.00;97580.19;4910185;29;20123;-60
2023/10/28 07:56:32;;;;;;;0.20;0.20;;;;;;;10.26;100.00;97588.63;4900102;29;20194;-61
2023/10/28 07:59:01;;;;;;;0.28;0.28;;;;;;;10.24;100.00;97585.41;4907566;29;20492;-61
2023/10/28 08:01:29;;;;;;;0.20;0.20;;;;;;;10.19;100.00;97590.03;4912162;29;20047;-60
2023/10/28 08:03:56;;;;;;;0.20;0.20;;;;;;;10.19;100.00;97592.69;4906232;29;20060;-61
2023/10/28 08:06:23;;;;;;;0.20;0.20;;;;;;;10.43;100.00;97595.47;4902990;29;20072;-61
2023/10/28 08:08:52;;;;;;;0.20;0.20;;;;;;;10.51;100.00;97593.00;4910957;29;20051;-60
2023/10/28 08:11:20;;;;;;;0.20;0.20;;;;;;;10.41;100.00;97586.91;4896860;29;20044;-60
2023/10/28 08:13:48;;;;;;;0.20;0.20;;;;;;;10.39;100.00;97595.22;4910300;29;20243;-60
2023/10/28 08:16:19;;;;;;;0.20;0.20;;;;;;;10.49;100.00;97600.50;4910321;29;20045;-60
2023/10/28 08:18:46;;;;;;;0.10;0.10;;;;;;;10.60;100.00;97598.53;4910072;29;20052;-60
2023/10/28 08:21:14;;;;;;;0.20;0.20;;;;;;;10.56;100.00;97594.81;4903133;29;20380;-59
2023/10/28 08:23:41;;;;;;;0.25;0.25;;;;;;;10.71;100.00;97597.34;4900325;29;20056;-60
2023/10/28 08:26:10;;;;;;;0.20;0.20;;;;;;;10.84;100.00;97600.47;4894889;29;20048;-59
2023/10/28 08:28:37;;;;;;;0.20;0.20;;;;;;;10.76;100.00;97601.88;4903667;29;20047;-59
2023/10/28 08:31:07;;;;;;;0.20;0.20;;;;;;;10.88;100.00;97607.63;4905074;29;20167;-60
2023/10/28 08:33:35;;;;;;;;;;;;;;;10.92;100.00;97611.34;4907989;29;20063;-59
2023/10/28 08:36:03;;;;;;;0.20;0.20;;;;;;;10.87;100.00;97616.75;4908203;29;19934;-60
2023/10/28 08:38:30;;;;;;;0.20;0.20;;;;;;;10.65;100.00;97613.75;4898240;29;20053;-60
2023/10/28 08:41:00;;;;;;;0.20;0.20;;;;;;;10.60;100.00;97621.84;4896487;29;20061;-60
2023/10/28 08:43:27;;;;;;;0.20;0.20;;;;;;;10.69;100.00;97614.81;4904793;29;20099;-60
2023/10/28 08:45:54;;;;;;;0.20;0.20;;;;;;;10.79;100.00;97626.22;4912017;29;20340;-61
2023/10/28 08:48:21;;;;;;;0.20;0.20;;;;;;;10.62;100.00;97625.03;4907766;29;20068;-60
2023/10/28 08:50:53;;;;;;;0.20;0.20;;;;;;;10.76;100.00;97632.16;4902550;29;20048;-60
2023/10/28 08:53:20;;;;;;;0.20;0.20;;;;;;;10.70;100.00;97632.47;4909212;29;20052;-60
2023/10/28 08:55:47;;;;;;;0.20;0.20;;;;;;;10.76;100.00;97639.38;4907353;29;20119;-60
2023/10/28 08:58:14;;;;;;;0.28;0.28;;;;;;;10.94;100.00;97637.88;4909564;29;20152;-60
2023/10/28 09:00:41;;;;;;;0.30;0.30;;;;;;;10.98;100.00;97650.44;4908519;29;20084;-61
2023/10/28 09:03:09;;;;;;;0.30;0.30;;;;;;;11.06;100.00;97646.34;4904327;29;20083;-61
2023/10/28 09:05:38;;;;;;;0.20;0.20;;;;;;;11.19;100.00;97655.59;4905295;29;20060;-59
2023/10/28 09:08:07;;;;;;;0.20;0.20;;;;;;;11.32;100.00;97648.72;4900848;29;20072;-61
2023/10/28 09:10:35;;;;;;;0.17;0.17;;;;;;;11.44;100.00;97651.81;4902759;29;20163;-61
2023/10/28 09:13:07;;;;;;;0.20;0.20;;;;;;;11.22;100.00;97652.31;4902802;29;20055;-60
2023/10/28 09:15:34;;;;;;;0.20;0.20;;;;;;;11.19;100.00;97656.38;4908333;29;20041;-59
2023/10/28 09:18:01;;;;;;;0.20;0.20;;;;;;;11.62;100.00;97648.38;4898911;29;20076;-61
2023/10/28 09:20:29;;;;;;;0.20;0.20;;;;;;;11.74;100.00;97647.97;4899053;29;20538;-60
2023/10/28 09:22:56;;;;;;;0.10;0.10;;;;;;;11.74;100.00;97645.28;4899423;29;20050;-60
2023/10/28 09:25:24;;;;;;;0.20;0.20;;;;;;;11.60;100.00;97645.16;4897745;29;20034;-61
2023/10/28 09:27:52;;;;;;;0.20;0.20;;;;;;;11.71;100.00;97651.22;4903373;29;20752;-59
2023/10/28 09:30:21;;;;;;;0.20;0.20;;;;;;;11.75;100.00;97652.22;4905379;29;20040;-60
2023/10/28 09:32:49;;;;;;;0.20;0.20;;;;;;;11.71;100.00;97656.59;4901116;29;20167;-59
2023/10/28 09:35:16;;;;;;;0.20;0.20;;;;;;;11.77;100.00;97655.44;4898128;29;20087;-59
2023/10/28 09:37:44;;;;;;;0.20;0.20;;;;;;;12.01;100.00;97660.00;4907277;29;20066;-59
2023/10/28 09:40:12;;;;;;;0.20;0.20;;;;;;;11.90;100.00;97669.25;4914917;29;20056;-59
2023/10/28 09:42:43;;;;;;;0.17;0.17;;;;;;;11.65;100.00;97673.81;4911563;29;20040;-59
2023/10/28 09:45:10;;;;;;;0.20;0.20;;;;;;;11.72;100.00;97685.00;4910574;29;20103;-59
2023/10/28 09:47:46;;;;;;;0.10;0.10;;;;;;;11.38;100.00;97683.28;4907037;29;20054;-59
2023/10/28 09:50:14;;;;;;;0.10;0.10;;;;;;;11.36;100.00;97687.31;4906696;29;20054;-59
2023/10/28 09:52:42;;;;;;;0.20;0.20;;;;;;;11.32;100.00;97687.06;4902258;29;20483;-59
2023/10/28 09:55:11;;;;;;;0.20;0.20;;;;;;;11.26;100.00;97688.22;4908874;29;20144;-59
2023/10/28 09:57:40;;;;;;;0.17;0.17;;;;;;;12.05;100.00;97682.47;4909501;29;20131;-59
2023/10/28 10:00:09;;;;;;;0.10;0.10;;;;;;;11.73;100.00;97681.25;4906906;29;20567;-59
2023/10/28 10:02:44;;;;;;;0.20;0.20;;;;;;;12.29;100.00;97699.31;4894822;29;20045;-59
2023/10/28 10:05:14;;;;;;;0.20;0.20;;;;;;;12.74;100.00;97694.34;4910213;29;20052;-59
2023/10/28 10:07:42;;;;;;;0.20;0.20;;;;;;;12.78;100.00;97691.06;4905771;29;20041;-60
2023/10/28 10:10:13;;;;;;;0.10;0.10;;;;;;;12.50;100.00;97694.47;4910763;29;20820;-60
2023/10/28 10:12:41;;;;;;;0.10;0.10;;;;;;;11.79;100.00;97690.03;4904566;29;20060;-59
2023/10/28 10:15:09;;;;;;;0.20;0.20;;;;;;;12.03;100.00;97690.00;4908585;29;20560;-60
2023/10/28 10:17:39;;;;;;;0.10;0.10;;;;;;;12.08;100.00;97689.94;4907936;29;20127;-60
2023/10/28 10:20:07;;;;;;;0.20;0.20;;;;;;;12.94;100.00;97687.81;4910608;29;20098;-60
2023/10/28 10:22:35;;;;;;;0.20;0.20;;;;;;;13.43;100.00;97692.91;4899982;29;20040;-60
2023/10/28 10:25:02;;;;;;;0.20;0.20;;;;;;;13.24;100.00;97692.97;4914503;29;20051;-60
2023/10/28 10:27:35;;;;;;;0.10;0.10;;;;;;;12.64;100.00;97682.97;4914104;29;20063;-60
2023/10/28 10:30:08;;;;;;;0.20;0.20;;;;;;;13.22;100.00;97695.16;4924696;29;20155;-60
2023/10/28 10:32:42;;;;;;;0.10;0.10;;;;;;;13.02;100.00;97701.69;4901523;29;20404;-60
2023/10/28 10:35:13;;;;;;;0.20;0.20;;;;;;;12.76;100.00;97706.72;4896985;29;20060;-60
2023/10/28 10:37:40;;;;;;;0.20;0.20;;;;;;;12.76;100.00;97696.75;4912248;29;20043;-59
2023/10/28 10:40:13;;;;;;;0.20;0.20;;;;;;;12.85;100.00;97715.69;4911792;29;20131;-59
2023/10/28 10:42:41;;;;;;;0.10;0.10;;;;;;;12.63;100.00;97709.03;4902124;29;20059;-59
2023/10/28 10:45:10;;;;;;;0.20;0.20;;;;;;;12.70;100.00;97708.66;4905017;29;20592;-61
2023/10/28 10:47:37;;;;;;;0.10;0.10;;;;;;;12.87;100.00;97708.13;4908712;29;20443;-61
2023/10/28 10:50:06;;;;;;;0.20;0.20;;;;;;;13.02;100.00;97715.94;4906910;29;20067;-61
2023/10/28 10:52:33;;;;;;;0.15;0.15;;;;;;;12.81;100.00;97704.72;4902216;29;20040;-61
2023/10/28 10:55:04;;;;;;;0.15;0.15;;;;;;;12.85;100.00;97711.09;4912957;29;20100;-60
2023/10/28 10:57:33;;;;;;;0.20;0.20;;;;;;;12.94;100.00;97709.34;4904960;29;20041;-60
2023/10/28 11:00:01;;;;;;;0.15;0.15;;;;;;;13.10;100.00;97704.50;4904493;29;20211;-60
2023/10/28 11:02:29;;;;;;;0.00;0.00;;;;;;;12.91;100.00;97693.00;4904851;29;20045;-60
2023/10/28 11:04:58;;;;;;;0.20;0.20;;;;;;;12.62;100.00;97690.50;4913127;29;20056;-60
2023/10/28 11:07:25;;;;;;;0.10;0.10;;;;;;;12.60;100.00;97692.69;4906795;29;20041;-60
2023/10/28 11:09:53;;;;;;;0.55;0.38;;;;;;;12.59;100.00;97681.16;4910957;29;20127;-61
2023/10/28 11:12:24;;;;;;;1.00;0.75;;;;;;;12.43;100.00;97683.28;4909778;29;20127;-60
2023/10/28 11:14:53;;;;;;;;;;;;;;;12.77;100.00;97676.03;4904412;29;20059;-58
2023/10/28 11:17:20;;;;;;;0.55;0.55;;;;;;;12.82;100.00;97668.66;4903225;29;19934;-60
2023/10/28 11:19:49;;;;;;;0.20;0.20;;;;;;;12.92;100.00;97670.38;4907310;29;20492;-60
2023/10/28 11:22:16;;;;;;;0.13;0.13;;;;;;;12.69;100.00;97664.06;4906169;29;20163;-60
2023/10/28 11:24:43;;;;;;;1.08;0.60;;;;;;;12.94;100.00;97654.75;4904748;29;20079;-60
2023/10/28 11:27:18;;;;;;;0.10;0.10;;;;;;;12.70;100.00;97658.41;4902111;29;20146;-60
2023/10/28 11:29:45;;;;;;;0.20;0.20;;;;;;;12.88;100.00;97655.94;4897715;29;20047;-60
2023/10/28 11:32:12;;;;;;;0.20;0.20;;;;;;;12.70;100.00;97660.28;4905399;29;20467;-60
2023/10/28 11:34:40;;;;;;;0.20;0.20;;;;;;;12.86;100.00;97661.63;4903942;29;20131;-60